sensor_id;sensor_type;location;lat;lon;timestamp;pressure;altitude;pressure_sealevel;temperature;humidity
23281;BME280;11809;56.390;-3.266;2023-06-19T00:02:05;100375.81;;;20.51;61.43
23281;BME280;11809;56.390;-3.266;2023-06-19T00:04:32;100369.63;;;20.51;61.57
23281;BME280;11809;56.390;-3.266;2023-06-19T00:07:00;100367.94;;;20.50;61.55
23281;BME280;11809;56.390;-3.266;2023-06-19T00:09:27;100354.72;;;20.48;61.63
23281;BME280;11809;56.390;-3.266;2023-06-19T00:11:55;100344.91;;;20.49;61.43
23281;BME280;11809;56.390;-3.266;2023-06-19T00:14:22;100333.47;;;20.47;61.73
23281;BME280;11809;56.390;-3.266;2023-06-19T00:16:50;100323.81;;;20.46;61.63
23281;BME280;11809;56.390;-3.266;2023-06-19T00:19:17;100320.13;;;20.47;61.52
23281;BME280;11809;56.390;-3.266;2023-06-19T00:21:45;100311.44;;;20.45;61.55
23281;BME280;11809;56.390;-3.266;2023-06-19T00:24:12;100316.75;;;20.45;61.55
23281;BME280;11809;56.390;-3.266;2023-06-19T00:26:39;100302.56;;;20.44;61.70
23281;BME280;11809;56.390;-3.266;2023-06-19T00:29:07;100300.03;;;20.43;61.71
23281;BME280;11809;56.390;-3.266;2023-06-19T00:31:34;100282.03;;;20.35;61.62
23281;BME280;11809;56.390;-3.266;2023-06-19T00:34:04;100294.00;;;20.41;61.59
23281;BME280;11809;56.390;-3.266;2023-06-19T00:36:31;100295.94;;;20.39;61.67
23281;BME280;11809;56.390;-3.266;2023-06-19T00:38:58;100289.78;;;20.38;61.74
23281;BME280;11809;56.390;-3.266;2023-06-19T00:41:26;100282.84;;;20.36;61.87
23281;BME280;11809;56.390;-3.266;2023-06-19T00:43:54;100275.84;;;20.35;61.45
23281;BME280;11809;56.390;-3.266;2023-06-19T00:46:21;100274.84;;;20.36;61.69
23281;BME280;11809;56.390;-3.266;2023-06-19T00:48:48;100282.84;;;20.36;61.94
23281;BME280;11809;56.390;-3.266;2023-06-19T00:51:16;100270.63;;;20.33;61.49
23281;BME280;11809;56.390;-3.266;2023-06-19T00:53:43;100258.00;;;20.35;61.49
23281;BME280;11809;56.390;-3.266;2023-06-19T00:56:10;100228.75;;;20.34;61.85
23281;BME280;11809;56.390;-3.266;2023-06-19T00:58:38;100244.91;;;20.32;61.45
23281;BME280;11809;56.390;-3.266;2023-06-19T01:01:05;100238.88;;;20.30;61.62
23281;BME280;11809;56.390;-3.266;2023-06-19T01:03:35;100228.22;;;20.30;61.94
23281;BME280;11809;56.390;-3.266;2023-06-19T01:06:08;100211.34;;;20.30;61.69
23281;BME280;11809;56.390;-3.266;2023-06-19T01:08:51;100220.31;;;20.29;61.85
23281;BME280;11809;56.390;-3.266;2023-06-19T01:11:25;100209.63;;;20.29;62.04
23281;BME280;11809;56.390;-3.266;2023-06-19T01:14:08;100214.97;;;20.29;61.83
23281;BME280;11809;56.390;-3.266;2023-06-19T01:16:37;100197.28;;;20.28;61.58
23281;BME280;11809;56.390;-3.266;2023-06-19T01:19:05;100198.13;;;20.28;61.80
23281;BME280;11809;56.390;-3.266;2023-06-19T01:21:36;100196.44;;;20.27;61.80
23281;BME280;11809;56.390;-3.266;2023-06-19T01:24:04;100183.75;;;20.20;61.60
23281;BME280;11809;56.390;-3.266;2023-06-19T01:26:31;100182.38;;;20.25;61.56
23281;BME280;11809;56.390;-3.266;2023-06-19T01:28:58;100162.00;;;20.24;61.78
23281;BME280;11809;56.390;-3.266;2023-06-19T01:34:18;100147.81;;;20.24;61.78
23281;BME280;11809;56.390;-3.266;2023-06-19T01:36:48;100143.41;;;20.23;61.94
23281;BME280;11809;56.390;-3.266;2023-06-19T01:39:19;100140.91;;;20.21;61.92
23281;BME280;11809;56.390;-3.266;2023-06-19T01:41:47;100128.69;;;20.19;61.99
23281;BME280;11809;56.390;-3.266;2023-06-19T01:44:15;100127.81;;;20.18;62.11
23281;BME280;11809;56.390;-3.266;2023-06-19T01:46:42;100123.34;;;20.19;62.04
23281;BME280;11809;56.390;-3.266;2023-06-19T01:49:09;100118.00;;;20.19;61.85
23281;BME280;11809;56.390;-3.266;2023-06-19T01:51:36;100122.50;;;20.18;61.91
23281;BME280;11809;56.390;-3.266;2023-06-19T01:54:03;100110.13;;;20.17;61.77
23281;BME280;11809;56.390;-3.266;2023-06-19T01:56:31;100094.97;;;20.18;61.78
23281;BME280;11809;56.390;-3.266;2023-06-19T01:58:58;100079.94;;;20.17;61.96
23281;BME280;11809;56.390;-3.266;2023-06-19T02:01:25;100083.59;;;20.16;61.83
23281;BME280;11809;56.390;-3.266;2023-06-19T02:03:52;100079.94;;;20.17;61.88
23281;BME280;11809;56.390;-3.266;2023-06-19T02:06:19;100071.63;;;20.10;61.84
23281;BME280;11809;56.390;-3.266;2023-06-19T02:08:48;100074.03;;;20.13;62.04
23281;BME280;11809;56.390;-3.266;2023-06-19T02:11:15;100080.22;;;20.14;62.02
23281;BME280;11809;56.390;-3.266;2023-06-19T02:13:42;100080.34;;;20.12;61.95
23281;BME280;11809;56.390;-3.266;2023-06-19T02:16:09;100058.19;;;20.12;61.96
23281;BME280;11809;56.390;-3.266;2023-06-19T02:18:36;100068.00;;;20.11;61.75
23281;BME280;11809;56.390;-3.266;2023-06-19T02:21:03;100069.81;;;20.11;62.05
23281;BME280;11809;56.390;-3.266;2023-06-19T02:23:30;100057.00;;;20.05;62.12
23281;BME280;11809;56.390;-3.266;2023-06-19T02:25:57;100055.63;;;20.10;61.96
23281;BME280;11809;56.390;-3.266;2023-06-19T02:28:24;100062.78;;;20.10;61.89
23281;BME280;11809;56.390;-3.266;2023-06-19T02:30:53;100058.28;;;20.10;61.86
23281;BME280;11809;56.390;-3.266;2023-06-19T02:33:20;100053.09;;;20.09;61.89
23281;BME280;11809;56.390;-3.266;2023-06-19T02:35:48;100045.09;;;20.09;62.22
23281;BME280;11809;56.390;-3.266;2023-06-19T02:38:15;100034.44;;;20.09;61.82
23281;BME280;11809;56.390;-3.266;2023-06-19T02:40:42;100028.38;;;20.07;61.88
23281;BME280;11809;56.390;-3.266;2023-06-19T02:43:09;100032.88;;;20.06;61.98
23281;BME280;11809;56.390;-3.266;2023-06-19T02:45:36;100029.22;;;20.07;61.86
23281;BME280;11809;56.390;-3.266;2023-06-19T02:48:04;100022.22;;;20.06;61.94
23281;BME280;11809;56.390;-3.266;2023-06-19T02:50:31;100014.31;;;20.05;61.89
23281;BME280;11809;56.390;-3.266;2023-06-19T02:52:58;100001.56;;;19.99;61.89
23281;BME280;11809;56.390;-3.266;2023-06-19T02:55:25;100010.69;;;20.06;61.97
23281;BME280;11809;56.390;-3.266;2023-06-19T02:57:52;100013.47;;;20.04;62.13
23281;BME280;11809;56.390;-3.266;2023-06-19T03:00:20;100008.03;;;20.06;62.12
23281;BME280;11809;56.390;-3.266;2023-06-19T03:02:47;99994.25;;;20.01;62.08
23281;BME280;11809;56.390;-3.266;2023-06-19T03:05:15;99988.78;;;20.02;62.18
23281;BME280;11809;56.390;-3.266;2023-06-19T03:07:43;99986.97;;;20.03;62.36
23281;BME280;11809;56.390;-3.266;2023-06-19T03:10:10;99977.25;;;20.02;62.10
23281;BME280;11809;56.390;-3.266;2023-06-19T03:12:37;99976.44;;;20.01;62.03
23281;BME280;11809;56.390;-3.266;2023-06-19T03:15:04;99970.25;;;20.01;62.04
23281;BME280;11809;56.390;-3.266;2023-06-19T03:17:31;99967.59;;;20.01;62.33
23281;BME280;11809;56.390;-3.266;2023-06-19T03:19:58;99961.25;;;20.02;62.08
23281;BME280;11809;56.390;-3.266;2023-06-19T03:22:25;99957.88;;;20.00;62.13
23281;BME280;11809;56.390;-3.266;2023-06-19T03:24:52;99960.56;;;20.00;62.22
23281;BME280;11809;56.390;-3.266;2023-06-19T03:27:19;99964.91;;;20.01;61.82
23281;BME280;11809;56.390;-3.266;2023-06-19T03:29:46;99952.56;;;20.00;62.30
23281;BME280;11809;56.390;-3.266;2023-06-19T03:32:13;99959.84;;;19.98;62.10
23281;BME280;11809;56.390;-3.266;2023-06-19T03:34:41;99956.22;;;19.99;62.04
23281;BME280;11809;56.390;-3.266;2023-06-19T03:37:08;99949.47;;;19.94;62.29
23281;BME280;11809;56.390;-3.266;2023-06-19T03:39:36;99945.56;;;19.99;62.30
23281;BME280;11809;56.390;-3.266;2023-06-19T03:42:03;99948.34;;;19.97;61.97
23281;BME280;11809;56.390;-3.266;2023-06-19T03:44:30;99954.63;;;19.96;62.13
23281;BME280;11809;56.390;-3.266;2023-06-19T03:46:57;99942.16;;;19.96;62.31
23281;BME280;11809;56.390;-3.266;2023-06-19T03:49:24;99937.81;;;19.95;62.45
23281;BME280;11809;56.390;-3.266;2023-06-19T03:51:51;99933.19;;;19.98;62.59
23281;BME280;11809;56.390;-3.266;2023-06-19T03:54:18;99937.66;;;19.97;62.31
23281;BME280;11809;56.390;-3.266;2023-06-19T03:56:46;99930.63;;;19.96;62.45
23281;BME280;11809;56.390;-3.266;2023-06-19T03:59:13;99930.63;;;19.96;62.50
23281;BME280;11809;56.390;-3.266;2023-06-19T04:01:40;99921.94;;;19.94;62.47
23281;BME280;11809;56.390;-3.266;2023-06-19T04:04:07;99924.75;;;19.92;62.59
23281;BME280;11809;56.390;-3.266;2023-06-19T04:06:35;99923.91;;;19.92;62.45
23281;BME280;11809;56.390;-3.266;2023-06-19T04:09:02;99915.91;;;19.92;62.52
23281;BME280;11809;56.390;-3.266;2023-06-19T04:11:29;99909.03;;;19.89;62.38
23281;BME280;11809;56.390;-3.266;2023-06-19T04:13:56;99910.72;;;19.90;62.59
23281;BME280;11809;56.390;-3.266;2023-06-19T04:16:23;99887.28;;;19.84;62.58
23281;BME280;11809;56.390;-3.266;2023-06-19T04:18:50;99879.28;;;19.84;62.61
23281;BME280;11809;56.390;-3.266;2023-06-19T04:21:17;99886.16;;;19.87;62.67
23281;BME280;11809;56.390;-3.266;2023-06-19T04:23:44;99878.84;;;19.89;62.75
23281;BME280;11809;56.390;-3.266;2023-06-19T04:26:11;99879.00;;;19.87;62.51
23281;BME280;11809;56.390;-3.266;2023-06-19T04:28:38;99878.00;;;19.88;62.73
23281;BME280;11809;56.390;-3.266;2023-06-19T04:31:06;99872.66;;;19.88;62.68
23281;BME280;11809;56.390;-3.266;2023-06-19T04:33:33;99877.03;;;19.89;62.77
23281;BME280;11809;56.390;-3.266;2023-06-19T04:36:00;99876.75;;;19.92;63.14
23281;BME280;11809;56.390;-3.266;2023-06-19T04:38:27;99865.94;;;19.94;63.48
23281;BME280;11809;56.390;-3.266;2023-06-19T04:40:54;99854.28;;;19.85;63.57
23281;BME280;11809;56.390;-3.266;2023-06-19T04:43:21;99852.06;;;19.90;63.63
23281;BME280;11809;56.390;-3.266;2023-06-19T04:45:51;99848.38;;;19.91;63.82
23281;BME280;11809;56.390;-3.266;2023-06-19T04:48:18;99858.09;;;19.92;63.61
23281;BME280;11809;56.390;-3.266;2023-06-19T04:50:45;99840.66;;;19.88;63.80
23281;BME280;11809;56.390;-3.266;2023-06-19T04:53:12;99852.59;;;19.94;63.87
23281;BME280;11809;56.390;-3.266;2023-06-19T04:55:39;99846.28;;;19.95;63.93
23281;BME280;11809;56.390;-3.266;2023-06-19T04:58:06;99845.44;;;19.94;63.98
23281;BME280;11809;56.390;-3.266;2023-06-19T05:00:34;99848.97;;;19.95;64.01
23281;BME280;11809;56.390;-3.266;2023-06-19T05:03:01;99842.78;;;19.94;64.03
23281;BME280;11809;56.390;-3.266;2023-06-19T05:05:28;99835.63;;;19.95;64.68
23281;BME280;11809;56.390;-3.266;2023-06-19T05:07:55;99844.31;;;19.97;64.70
23281;BME280;11809;56.390;-3.266;2023-06-19T05:10:22;99832.53;;;20.00;65.53
23281;BME280;11809;56.390;-3.266;2023-06-19T05:12:50;99825.94;;;20.04;66.17
23281;BME280;11809;56.390;-3.266;2023-06-19T05:15:17;99822.84;;;20.08;65.80
23281;BME280;11809;56.390;-3.266;2023-06-19T05:17:44;99832.22;;;20.12;66.12
23281;BME280;11809;56.390;-3.266;2023-06-19T05:20:13;99828.44;;;20.15;65.36
23281;BME280;11809;56.390;-3.266;2023-06-19T05:22:40;99829.44;;;20.14;65.81
23281;BME280;11809;56.390;-3.266;2023-06-19T05:25:08;99827.47;;;20.16;66.05
23281;BME280;11809;56.390;-3.266;2023-06-19T05:27:35;99830.81;;;20.18;65.84
23281;BME280;11809;56.390;-3.266;2023-06-19T05:30:03;99837.41;;;20.23;65.73
23281;BME280;11809;56.390;-3.266;2023-06-19T05:32:31;99824.97;;;20.24;65.37
23281;BME280;11809;56.390;-3.266;2023-06-19T05:34:58;99833.91;;;20.23;65.32
23281;BME280;11809;56.390;-3.266;2023-06-19T05:37:25;99838.31;;;20.24;65.47
23281;BME280;11809;56.390;-3.266;2023-06-19T05:39:53;99830.00;;;20.27;65.15
23281;BME280;11809;56.390;-3.266;2023-06-19T05:42:21;99829.03;;;20.28;64.99
23281;BME280;11809;56.390;-3.266;2023-06-19T05:44:48;99824.00;;;20.25;65.16
23281;BME280;11809;56.390;-3.266;2023-06-19T05:47:15;99842.22;;;20.29;65.22
23281;BME280;11809;56.390;-3.266;2023-06-19T05:49:43;99838.59;;;20.30;64.85
23281;BME280;11809;56.390;-3.266;2023-06-19T05:52:10;99840.13;;;20.33;65.09
23281;BME280;11809;56.390;-3.266;2023-06-19T05:54:37;99837.47;;;20.33;64.54
23281;BME280;11809;56.390;-3.266;2023-06-19T05:57:05;99839.72;;;20.28;65.54
23281;BME280;11809;56.390;-3.266;2023-06-19T05:59:32;99841.38;;;20.29;65.50
23281;BME280;11809;56.390;-3.266;2023-06-19T06:01:59;99838.72;;;20.29;65.22
23281;BME280;11809;56.390;-3.266;2023-06-19T06:04:27;99842.22;;;20.29;64.56
23281;BME280;11809;56.390;-3.266;2023-06-19T06:06:54;99844.75;;;20.31;64.42
23281;BME280;11809;56.390;-3.266;2023-06-19T06:09:21;99843.94;;;20.30;64.03
23281;BME280;11809;56.390;-3.266;2023-06-19T06:11:48;99834.06;;;20.31;63.85
23281;BME280;11809;56.390;-3.266;2023-06-19T06:14:15;99836.63;;;20.32;63.86
23281;BME280;11809;56.390;-3.266;2023-06-19T06:16:43;99837.47;;;20.33;63.62
23281;BME280;11809;56.390;-3.266;2023-06-19T06:19:10;99847.13;;;20.34;64.39
23281;BME280;11809;56.390;-3.266;2023-06-19T06:21:37;99842.19;;;20.39;66.29
23281;BME280;11809;56.390;-3.266;2023-06-19T06:24:04;99844.47;;;20.34;65.39
23281;BME280;11809;56.390;-3.266;2023-06-19T06:26:31;99853.88;;;20.38;65.21
23281;BME280;11809;56.390;-3.266;2023-06-19T06:29:00;99853.75;;;20.30;65.32
23281;BME280;11809;56.390;-3.266;2023-06-19T06:31:27;99860.75;;;20.21;65.54
23281;BME280;11809;56.390;-3.266;2023-06-19T06:33:54;99855.25;;;20.23;65.99
23281;BME280;11809;56.390;-3.266;2023-06-19T06:36:21;99841.38;;;20.19;65.20
23281;BME280;11809;56.390;-3.266;2023-06-19T06:39:02;99851.47;;;20.25;64.74
23281;BME280;11809;56.390;-3.266;2023-06-19T06:41:29;99849.91;;;20.23;65.00
23281;BME280;11809;56.390;-3.266;2023-06-19T06:43:56;99855.16;;;20.24;64.53
23281;BME280;11809;56.390;-3.266;2023-06-19T06:46:24;99866.78;;;20.23;64.56
23281;BME280;11809;56.390;-3.266;2023-06-19T06:48:51;99872.25;;;20.22;64.69
23281;BME280;11809;56.390;-3.266;2023-06-19T06:51:18;99874.25;;;20.20;64.44
23281;BME280;11809;56.390;-3.266;2023-06-19T06:53:46;99887.00;;;20.16;64.31
23281;BME280;11809;56.390;-3.266;2023-06-19T06:56:13;99881.50;;;20.18;64.06
23281;BME280;11809;56.390;-3.266;2023-06-19T06:58:40;99895.00;;;20.16;64.49
23281;BME280;11809;56.390;-3.266;2023-06-19T07:01:07;99888.81;;;20.16;64.27
23281;BME280;11809;56.390;-3.266;2023-06-19T07:03:34;99900.47;;;20.15;64.16
23281;BME280;11809;56.390;-3.266;2023-06-19T07:06:02;99896.13;;;20.14;64.10
23281;BME280;11809;56.390;-3.266;2023-06-19T07:08:29;99912.13;;;20.14;64.16
23281;BME280;11809;56.390;-3.266;2023-06-19T07:10:57;99904.25;;;20.12;63.95
23281;BME280;11809;56.390;-3.266;2023-06-19T07:13:24;99899.94;;;20.11;64.13
23281;BME280;11809;56.390;-3.266;2023-06-19T07:15:52;99894.44;;;20.13;64.13
23281;BME280;11809;56.390;-3.266;2023-06-19T07:18:19;99903.44;;;20.12;64.11
23281;BME280;11809;56.390;-3.266;2023-06-19T07:20:46;99903.44;;;20.12;64.00
23281;BME280;11809;56.390;-3.266;2023-06-19T07:23:14;99897.38;;;20.10;63.93
23281;BME280;11809;56.390;-3.266;2023-06-19T07:25:41;99907.09;;;20.11;63.83
23281;BME280;11809;56.390;-3.266;2023-06-19T07:28:08;99912.41;;;20.11;63.61
23281;BME280;11809;56.390;-3.266;2023-06-19T07:30:36;99903.72;;;20.09;64.13
23281;BME280;11809;56.390;-3.266;2023-06-19T07:33:03;99909.06;;;20.09;64.05
23281;BME280;11809;56.390;-3.266;2023-06-19T07:35:30;99902.56;;;20.02;63.88
23281;BME280;11809;56.390;-3.266;2023-06-19T07:37:57;99913.53;;;20.08;64.20
23281;BME280;11809;56.390;-3.266;2023-06-19T07:40:25;99909.59;;;20.03;63.85
23281;BME280;11809;56.390;-3.266;2023-06-19T07:42:52;99917.19;;;20.07;64.12
23281;BME280;11809;56.390;-3.266;2023-06-19T07:45:20;99919.84;;;20.07;64.04
23281;BME280;11809;56.390;-3.266;2023-06-19T07:47:56;99918.31;;;20.05;64.03
23281;BME280;11809;56.390;-3.266;2023-06-19T07:50:24;99921.66;;;20.07;64.29
23281;BME280;11809;56.390;-3.266;2023-06-19T07:52:53;99903.16;;;20.05;63.92
23281;BME280;11809;56.390;-3.266;2023-06-19T07:55:20;99913.53;;;20.08;64.17
23281;BME280;11809;56.390;-3.266;2023-06-19T07:57:48;99909.06;;;20.09;63.82
23281;BME280;11809;56.390;-3.266;2023-06-19T08:00:15;99907.34;;;20.08;64.04
23281;BME280;11809;56.390;-3.266;2023-06-19T08:02:42;99914.66;;;20.06;64.09
23281;BME280;11809;56.390;-3.266;2023-06-19T08:05:10;99918.03;;;20.08;64.01
23281;BME280;11809;56.390;-3.266;2023-06-19T08:07:38;99920.97;;;20.05;64.05
23281;BME280;11809;56.390;-3.266;2023-06-19T08:10:06;99922.81;;;20.14;63.95
23281;BME280;11809;56.390;-3.266;2023-06-19T08:12:43;99929.69;;;20.16;63.81
23281;BME280;11809;56.390;-3.266;2023-06-19T08:15:11;99923.34;;;20.17;63.51
23281;BME280;11809;56.390;-3.266;2023-06-19T08:17:41;99926.75;;;20.19;63.72
23281;BME280;11809;56.390;-3.266;2023-06-19T08:20:09;99922.72;;;20.25;63.83
23281;BME280;11809;56.390;-3.266;2023-06-19T08:22:37;99919.19;;;21.46;60.10
23281;BME280;11809;56.390;-3.266;2023-06-19T08:25:05;99912.78;;;21.66;58.98
23281;BME280;11809;56.390;-3.266;2023-06-19T08:27:32;99913.13;;;21.26;60.63
23281;BME280;11809;56.390;-3.266;2023-06-19T08:30:00;99915.94;;;21.05;60.93
23281;BME280;11809;56.390;-3.266;2023-06-19T08:32:27;99916.00;;;20.96;61.32
23281;BME280;11809;56.390;-3.266;2023-06-19T08:34:54;99925.59;;;20.89;61.58
23281;BME280;11809;56.390;-3.266;2023-06-19T08:37:23;99925.44;;;20.90;61.45
23281;BME280;11809;56.390;-3.266;2023-06-19T08:39:50;99915.16;;;20.95;61.52
23281;BME280;11809;56.390;-3.266;2023-06-19T08:42:18;99916.84;;;20.96;61.49
23281;BME280;11809;56.390;-3.266;2023-06-19T08:44:45;99929.19;;;20.97;61.52
23281;BME280;11809;56.390;-3.266;2023-06-19T08:47:12;99934.13;;;20.92;61.41
23281;BME280;11809;56.390;-3.266;2023-06-19T08:49:39;99936.97;;;20.91;61.43
23281;BME280;11809;56.390;-3.266;2023-06-19T08:52:07;99934.28;;;20.91;61.79
23281;BME280;11809;56.390;-3.266;2023-06-19T08:54:36;99938.63;;;20.92;61.45
23281;BME280;11809;56.390;-3.266;2023-06-19T08:57:11;99944.13;;;20.90;61.86
23281;BME280;11809;56.390;-3.266;2023-06-19T08:59:50;99938.22;;;20.87;61.57
23281;BME280;11809;56.390;-3.266;2023-06-19T09:02:18;99931.06;;;20.87;61.66
23281;BME280;11809;56.390;-3.266;2023-06-19T09:04:45;99951.56;;;20.87;61.66
23281;BME280;11809;56.390;-3.266;2023-06-19T09:07:13;99946.69;;;20.82;61.67
23281;BME280;11809;56.390;-3.266;2023-06-19T09:09:45;99952.88;;;20.83;61.33
23281;BME280;11809;56.390;-3.266;2023-06-19T09:12:16;99948.09;;;20.86;61.46
23281;BME280;11809;56.390;-3.266;2023-06-19T09:14:45;99958.78;;;20.86;61.46
23281;BME280;11809;56.390;-3.266;2023-06-19T09:17:18;99954.84;;;20.81;61.06
23281;BME280;11809;56.390;-3.266;2023-06-19T09:19:51;99943.31;;;20.80;61.37
23281;BME280;11809;56.390;-3.266;2023-06-19T09:22:21;99947.25;;;20.76;61.44
23281;BME280;11809;56.390;-3.266;2023-06-19T09:24:49;99957.78;;;20.78;61.87
23281;BME280;11809;56.390;-3.266;2023-06-19T09:27:18;99958.06;;;20.75;61.66
23281;BME280;11809;56.390;-3.266;2023-06-19T09:29:48;99970.75;;;20.73;61.47
23281;BME280;11809;56.390;-3.266;2023-06-19T09:34:51;99959.06;;;20.64;61.60
23281;BME280;11809;56.390;-3.266;2023-06-19T09:37:25;99961.06;;;20.62;61.35
23281;BME280;11809;56.390;-3.266;2023-06-19T09:39:56;99964.69;;;20.61;61.29
23281;BME280;11809;56.390;-3.266;2023-06-19T09:42:34;99977.34;;;20.59;61.38
23281;BME280;11809;56.390;-3.266;2023-06-19T09:45:04;99970.47;;;20.57;61.23
23281;BME280;11809;56.390;-3.266;2023-06-19T09:47:36;99977.63;;;20.56;61.15
23281;BME280;11809;56.390;-3.266;2023-06-19T09:50:06;99971.88;;;20.51;60.98
23281;BME280;11809;56.390;-3.266;2023-06-19T09:52:33;99978.75;;;20.53;60.94
23281;BME280;11809;56.390;-3.266;2023-06-19T09:55:04;99980.84;;;20.50;61.32
23281;BME280;11809;56.390;-3.266;2023-06-19T09:57:32;99979.16;;;20.59;60.96
23281;BME280;11809;56.390;-3.266;2023-06-19T10:00:01;99979.88;;;20.51;60.80
23281;BME280;11809;56.390;-3.266;2023-06-19T10:02:44;99970.31;;;20.48;60.84
23281;BME280;11809;56.390;-3.266;2023-06-19T10:05:11;99969.47;;;20.48;60.90
23281;BME280;11809;56.390;-3.266;2023-06-19T10:07:42;99974.13;;;20.46;61.11
23281;BME280;11809;56.390;-3.266;2023-06-19T10:10:12;99973.13;;;20.47;61.10
23281;BME280;11809;56.390;-3.266;2023-06-19T10:12:49;99968.94;;;20.54;60.94
23281;BME280;11809;56.390;-3.266;2023-06-19T10:15:27;99976.66;;;20.57;60.88
23281;BME280;11809;56.390;-3.266;2023-06-19T10:18:05;99979.00;;;20.60;61.07
23281;BME280;11809;56.390;-3.266;2023-06-19T10:20:35;99972.00;;;20.59;60.83
23281;BME280;11809;56.390;-3.266;2023-06-19T10:23:17;99968.66;;;20.57;61.06
23281;BME280;11809;56.390;-3.266;2023-06-19T10:25:49;99974.81;;;20.58;61.12
23281;BME280;11809;56.390;-3.266;2023-06-19T10:28:24;99967.06;;;20.54;61.48
23281;BME280;11809;56.390;-3.266;2023-06-19T10:31:03;99981.69;;;20.50;61.39
23281;BME280;11809;56.390;-3.266;2023-06-19T10:33:32;99992.38;;;20.50;61.19
23281;BME280;11809;56.390;-3.266;2023-06-19T10:36:01;99992.53;;;20.49;61.18
23281;BME280;11809;56.390;-3.266;2023-06-19T10:38:30;99986.63;;;20.45;61.02
23281;BME280;11809;56.390;-3.266;2023-06-19T10:40:57;99996.59;;;20.43;61.01
23281;BME280;11809;56.390;-3.266;2023-06-19T10:43:25;99987.59;;;20.44;61.25
23281;BME280;11809;56.390;-3.266;2023-06-19T10:45:57;99982.97;;;20.46;60.74
23281;BME280;11809;56.390;-3.266;2023-06-19T10:48:26;99985.50;;;20.48;61.03
23281;BME280;11809;56.390;-3.266;2023-06-19T10:50:56;99983.41;;;20.51;60.39
23281;BME280;11809;56.390;-3.266;2023-06-19T10:53:27;99984.09;;;20.53;60.38
23281;BME280;11809;56.390;-3.266;2023-06-19T10:55:58;99992.69;;;20.57;60.55
23281;BME280;11809;56.390;-3.266;2023-06-19T10:58:27;99988.72;;;20.61;60.42
23281;BME280;11809;56.390;-3.266;2023-06-19T11:00:56;99986.75;;;20.63;60.47
23281;BME280;11809;56.390;-3.266;2023-06-19T11:03:24;99981.41;;;20.63;60.05
23281;BME280;11809;56.390;-3.266;2023-06-19T11:05:51;99993.63;;;20.66;60.29
23281;BME280;11809;56.390;-3.266;2023-06-19T11:08:20;99981.41;;;20.63;60.12
23281;BME280;11809;56.390;-3.266;2023-06-19T11:10:49;99987.47;;;20.65;60.28
23281;BME280;11809;56.390;-3.266;2023-06-19T11:13:18;99999.81;;;20.66;60.33
23281;BME280;11809;56.390;-3.266;2023-06-19T11:15:50;99997.03;;;20.68;59.89
23281;BME280;11809;56.390;-3.266;2023-06-19T11:18:18;99992.22;;;20.71;59.94
23281;BME280;11809;56.390;-3.266;2023-06-19T11:20:47;100000.94;;;20.73;60.17
23281;BME280;11809;56.390;-3.266;2023-06-19T11:23:25;99998.25;;;20.73;60.23
23281;BME280;11809;56.390;-3.266;2023-06-19T11:25:53;99996.72;;;20.71;60.82
23281;BME280;11809;56.390;-3.266;2023-06-19T11:28:21;99997.56;;;20.71;60.31
23281;BME280;11809;56.390;-3.266;2023-06-19T11:31:01;100009.94;;;20.72;60.59
23281;BME280;11809;56.390;-3.266;2023-06-19T11:33:30;100004.31;;;20.75;60.57
23281;BME280;11809;56.390;-3.266;2023-06-19T11:36:00;100011.34;;;20.76;60.33
23281;BME280;11809;56.390;-3.266;2023-06-19T11:38:28;100015.53;;;20.79;60.08
23281;BME280;11809;56.390;-3.266;2023-06-19T11:40:56;100013.72;;;20.79;60.42
23281;BME280;11809;56.390;-3.266;2023-06-19T11:43:35;100016.13;;;20.82;60.24
23281;BME280;11809;56.390;-3.266;2023-06-19T11:46:08;100009.06;;;20.81;60.51
23281;BME280;11809;56.390;-3.266;2023-06-19T11:48:37;100019.47;;;20.84;61.30
23281;BME280;11809;56.390;-3.266;2023-06-19T11:51:04;100010.22;;;20.88;60.71
23281;BME280;11809;56.390;-3.266;2023-06-19T11:53:32;100010.91;;;20.90;60.63
23281;BME280;11809;56.390;-3.266;2023-06-19T11:55:59;100023.97;;;20.93;60.62
23281;BME280;11809;56.390;-3.266;2023-06-19T11:58:27;100015.00;;;20.94;60.73
23281;BME280;11809;56.390;-3.266;2023-06-19T12:00:54;100007.09;;;20.93;60.50
23281;BME280;11809;56.390;-3.266;2023-06-19T12:03:23;100007.66;;;20.96;60.50
23281;BME280;11809;56.390;-3.266;2023-06-19T12:05:51;99986.88;;;20.90;60.68
23281;BME280;11809;56.390;-3.266;2023-06-19T12:08:18;99994.72;;;20.92;60.30
23281;BME280;11809;56.390;-3.266;2023-06-19T12:10:45;100007.50;;;20.98;60.55
23281;BME280;11809;56.390;-3.266;2023-06-19T12:13:13;100007.66;;;20.96;60.28
23281;BME280;11809;56.390;-3.266;2023-06-19T12:15:40;100008.53;;;20.97;60.52
23281;BME280;11809;56.390;-3.266;2023-06-19T12:18:07;100016.66;;;20.95;60.09
23281;BME280;11809;56.390;-3.266;2023-06-19T12:20:35;100012.59;;;20.91;60.31
23281;BME280;11809;56.390;-3.266;2023-06-19T12:23:02;100023.69;;;20.96;60.30
23281;BME280;11809;56.390;-3.266;2023-06-19T12:25:29;100022.69;;;20.97;60.48
23281;BME280;11809;56.390;-3.266;2023-06-19T12:27:57;100020.03;;;20.97;60.31
23281;BME280;11809;56.390;-3.266;2023-06-19T12:30:25;100018.06;;;20.99;60.64
23281;BME280;11809;56.390;-3.266;2023-06-19T12:32:52;100021.44;;;21.01;60.48
23281;BME280;11809;56.390;-3.266;2023-06-19T12:35:20;100016.09;;;21.01;60.16
23281;BME280;11809;56.390;-3.266;2023-06-19T12:37:47;100016.78;;;21.03;60.46
23281;BME280;11809;56.390;-3.266;2023-06-19T12:40:15;100018.78;;;21.01;60.64
23281;BME280;11809;56.390;-3.266;2023-06-19T12:42:44;100018.63;;;21.03;60.33
23281;BME280;11809;56.390;-3.266;2023-06-19T12:45:11;100028.59;;;21.01;60.66
23281;BME280;11809;56.390;-3.266;2023-06-19T12:47:38;100027.75;;;21.00;60.75
23281;BME280;11809;56.390;-3.266;2023-06-19T12:50:06;100022.56;;;20.99;60.82
23281;BME280;11809;56.390;-3.266;2023-06-19T12:52:34;100025.78;;;21.02;60.66
23281;BME280;11809;56.390;-3.266;2023-06-19T12:55:01;100027.63;;;21.02;60.61
23281;BME280;11809;56.390;-3.266;2023-06-19T12:57:28;100025.09;;;21.00;60.67